Time;durP1;ratioP1;P1;durP2;ratioP2;P2;SDS_P1;SDS_P2;PMS_P1;PMS_P2;Temp;Humidity;BMP_temperature;BMP_pressure;BME280_temperature;BME280_humidity;BME280_pressure;Samples;Min_cycle;Max_cycle;Signal;HPM_P1;HPM_P2
2021/12/11 00:00:06;;;;;;;18.40;8.75;;;;;;;0.21;92.12;99389.44;5084230;28;20024;-75
2021/12/11 00:02:33;;;;;;;8.85;3.65;;;;;;;0.25;91.82;99380.16;5084483;28;20021;-75
2021/12/11 00:05:00;;;;;;;21.98;10.27;;;;;;;0.18;92.11;99388.53;5085372;28;20020;-75
2021/12/11 00:07:29;;;;;;;19.90;10.27;;;;;;;0.22;92.38;99401.38;5085520;28;20171;-76
2021/12/11 00:10:00;;;;;;;11.32;6.20;;;;;;;0.26;92.27;99392.09;5085214;28;20381;-75
2021/12/11 00:12:31;;;;;;;15.43;8.57;;;;;;;0.26;92.30;99401.44;5085599;28;20029;-76
2021/12/11 00:15:21;;;;;;;15.55;8.93;;;;;;;0.22;92.50;99400.53;5085258;28;20032;-76
2021/12/11 00:17:47;;;;;;;15.32;9.10;;;;;;;0.28;92.16;99395.53;5085074;28;20050;-75
2021/12/11 00:20:24;;;;;;;19.27;8.25;;;;;;;0.24;92.41;99403.94;5085085;28;20021;-73
2021/12/11 00:22:50;;;;;;;18.05;9.55;;;;;;;0.27;91.86;99398.94;5085111;28;20027;-72
2021/12/11 00:25:18;;;;;;;23.27;10.60;;;;;;;0.24;92.08;99404.81;5083454;28;20020;-72
2021/12/11 00:27:46;;;;;;;17.67;8.25;;;;;;;0.24;92.18;99409.94;5084716;28;20029;-72
2021/12/11 00:30:21;;;;;;;7.13;4.65;;;;;;;0.26;92.03;99406.56;5084887;28;20039;-73
2021/12/11 00:32:47;;;;;;;22.45;10.27;;;;;;;0.19;92.22;99401.31;5084782;28;20028;-73
2021/12/11 00:35:20;;;;;;;21.90;11.43;;;;;;;0.19;92.34;99411.53;5084738;28;20431;-73
2021/12/11 00:37:47;;;;;;;16.20;8.00;;;;;;;0.23;92.31;99405.66;5084842;28;20123;-73
2021/12/11 00:40:25;;;;;;;17.35;7.45;;;;;;;0.25;92.18;99408.25;5084465;28;20059;-73
2021/12/11 00:42:57;;;;;;;19.73;9.13;;;;;;;0.23;92.12;99410.75;5084454;28;20021;-73
2021/12/11 00:45:23;;;;;;;;;;;;;;;0.26;91.92;99414.22;5083873;28;20076;-74
2021/12/11 00:48:01;;;;;;;8.20;3.95;;;;;;;0.23;91.79;99413.31;5084540;28;19908;-73
2021/12/11 00:50:31;;;;;;;18.40;8.50;;;;;;;0.20;91.97;99413.28;5084329;28;20380;-73
2021/12/11 00:53:07;;;;;;;15.98;7.70;;;;;;;0.18;92.14;99414.91;5084774;28;20020;-73
2021/12/11 00:55:40;;;;;;;22.65;9.93;;;;;;;0.17;91.86;99410.66;5084459;28;20472;-73
2021/12/11 00:58:11;;;;;;;24.33;12.63;;;;;;;0.20;91.71;99418.38;5084561;28;20025;-73
2021/12/11 01:00:42;;;;;;;10.25;5.95;;;;;;;0.27;91.78;99426.13;5084405;28;20041;-72
2021/12/11 01:03:08;;;;;;;19.67;10.52;;;;;;;0.19;91.89;99426.84;5084391;28;20514;-74
2021/12/11 01:05:41;;;;;;;21.70;9.55;;;;;;;0.17;92.18;99427.66;5084166;28;20039;-74
2021/12/11 01:08:39;;;;;;;16.70;8.73;;;;;;;0.16;92.18;99426.78;5083825;28;20048;-74
2021/12/11 01:11:07;;;;;;;24.65;11.20;;;;;;;0.22;92.08;99428.59;5083198;28;20036;-74
2021/12/11 01:13:40;;;;;;;20.35;8.00;;;;;;;0.23;92.04;99428.63;5083600;28;20023;-75
2021/12/11 01:16:12;;;;;;;14.45;7.03;;;;;;;0.18;92.24;99432.78;5084178;28;20040;-74
2021/12/11 01:18:41;;;;;;;18.55;8.45;;;;;;;0.19;92.24;99434.50;5083955;28;20032;-75
2021/12/11 01:21:42;;;;;;;24.77;10.35;;;;;;;0.17;92.33;99443.84;5082491;28;20028;-74
2021/12/11 01:24:47;;;;;;;23.77;12.20;;;;;;;0.17;92.53;99448.94;5083841;28;20020;-74
2021/12/11 01:27:05;;;;;;;25.30;12.15;;;;;;;0.18;92.44;99444.69;5081790;28;20036;-73
2021/12/11 01:29:32;;;;;;;26.98;9.48;;;;;;;0.14;92.38;99442.91;5083972;28;20025;-73
2021/12/11 01:31:59;;;;;;;24.65;11.02;;;;;;;0.24;92.00;99449.91;5083807;28;20027;-73
2021/12/11 01:34:26;;;;;;;22.00;10.23;;;;;;;0.25;91.93;99454.19;5083901;28;20017;-73
2021/12/11 01:36:52;;;;;;;20.88;8.82;;;;;;;0.23;91.94;99453.28;5083912;28;20233;-73
2021/12/11 01:39:22;;;;;;;27.73;13.52;;;;;;;0.13;92.17;99452.25;5083219;28;20036;-72
2021/12/11 01:41:50;;;;;;;25.92;12.30;;;;;;;0.24;92.07;99466.09;5083551;28;20473;-72
2021/12/11 01:44:28;;;;;;;25.60;12.82;;;;;;;0.18;92.35;99465.09;5083773;28;20025;-72
2021/12/11 01:47:25;;;;;;;18.90;10.57;;;;;;;0.22;92.14;99465.19;5083669;28;20097;-72
2021/12/11 01:49:56;;;;;;;14.73;7.47;;;;;;;0.27;91.77;99460.19;5080199;28;20033;-71
2021/12/11 01:52:38;;;;;;;26.55;13.95;;;;;;;0.23;91.91;99466.06;5083313;28;20032;-71
2021/12/11 01:55:22;;;;;;;15.40;6.82;;;;;;;0.18;91.91;99471.09;5083308;28;20050;-72
2021/12/11 01:57:51;;;;;;;25.00;11.25;;;;;;;0.24;91.92;99488.19;5083883;28;20044;-72
2021/12/11 02:00:24;;;;;;;18.48;8.20;;;;;;;0.20;92.06;99479.63;5082342;28;20024;-72
2021/12/11 02:02:54;;;;;;;29.17;12.55;;;;;;;0.19;92.22;99485.56;5083598;28;20043;-71
2021/12/11 02:05:24;;;;;;;29.55;13.77;;;;;;;0.16;92.62;99493.16;5083768;28;20031;-71
2021/12/11 02:07:56;;;;;;;24.65;13.10;;;;;;;0.20;92.41;99494.09;5081995;28;20070;-71
2021/12/11 02:10:28;;;;;;;29.27;13.35;;;;;;;0.21;92.37;99503.47;5083334;28;20048;-71
2021/12/11 02:12:56;;;;;;;17.65;9.15;;;;;;;0.23;92.22;99499.25;5083607;28;20591;-72
2021/12/11 02:15:31;;;;;;;20.73;9.18;;;;;;;0.23;91.99;99502.69;5083527;28;20021;-71
2021/12/11 02:18:12;;;;;;;18.13;9.80;;;;;;;0.28;91.18;99495.09;5083666;28;20024;-71
2021/12/11 02:20:43;;;;;;;30.15;15.50;;;;;;;0.22;91.84;99505.19;5083247;28;20078;-71
2021/12/11 02:23:11;;;;;;;16.98;9.98;;;;;;;0.16;92.15;99510.19;5083443;28;20107;-70
2021/12/11 02:25:40;;;;;;;25.70;13.38;;;;;;;0.25;91.92;99512.91;5085586;28;20081;-71
2021/12/11 02:28:12;;;;;;;32.08;14.98;;;;;;;0.18;92.24;99511.06;5087435;28;20055;-71
2021/12/11 02:30:40;;;;;;;;;;;;;;;0.24;91.83;99522.25;5087721;28;20018;-71
2021/12/11 02:33:15;;;;;;;32.88;15.02;;;;;;;0.20;92.02;99528.16;5087417;28;19965;-71
2021/12/11 02:35:53;;;;;;;35.97;16.33;;;;;;;0.11;92.43;99515.19;5087446;28;20023;-71
2021/12/11 02:38:33;;;;;;;33.35;14.68;;;;;;;0.19;92.35;99525.56;5087101;28;20483;-70
2021/12/11 02:41:10;;;;;;;33.22;15.93;;;;;;;0.13;92.52;99516.06;5087180;28;20033;-71
2021/12/11 02:43:41;;;;;;;29.20;14.45;;;;;;;0.16;92.66;99517.84;5087152;28;20025;-71
2021/12/11 02:46:12;;;;;;;39.28;17.77;;;;;;;0.16;92.87;99522.94;5087242;28;20751;-71
2021/12/11 02:48:43;;;;;;;38.72;17.92;;;;;;;0.16;92.63;99515.28;5087093;28;20119;-71
2021/12/11 02:51:42;;;;;;;35.40;17.40;;;;;;;0.23;92.66;99527.34;5086935;28;20099;-71
2021/12/11 02:54:16;;;;;;;29.92;12.43;;;;;;;0.18;92.84;99537.44;5078587;28;20221;-71
2021/12/11 02:56:48;;;;;;;35.88;15.20;;;;;;;0.11;92.92;99520.31;5085578;28;20063;-71
2021/12/11 02:59:17;;;;;;;37.92;16.13;;;;;;;0.19;92.96;99535.78;5087005;28;20031;-72
2021/12/11 03:01:56;;;;;;;45.35;18.70;;;;;;;0.20;92.98;99540.03;5086718;28;20081;-71
2021/12/11 03:04:32;;;;;;;19.05;9.57;;;;;;;0.23;92.83;99532.44;5086788;28;20031;-72
2021/12/11 03:07:00;;;;;;;43.97;19.98;;;;;;;0.14;92.86;99525.47;5086565;28;20070;-72
2021/12/11 03:09:31;;;;;;;25.40;11.82;;;;;;;0.19;92.97;99531.50;5085962;28;20045;-71
2021/12/11 03:11:59;;;;;;;37.28;17.33;;;;;;;0.18;92.98;99532.34;5086655;28;20029;-71
2021/12/11 03:14:26;;;;;;;42.13;18.35;;;;;;;0.18;92.85;99529.78;5086517;28;20669;-72
2021/12/11 03:16:53;;;;;;;35.45;16.67;;;;;;;0.19;92.51;99531.50;5086439;28;20488;-71
2021/12/11 03:19:23;;;;;;;42.47;19.25;;;;;;;0.18;92.50;99534.91;5086371;28;20024;-70
2021/12/11 03:21:50;;;;;;;31.95;14.98;;;;;;;0.16;92.82;99544.22;5086576;28;20084;-71
2021/12/11 03:24:18;;;;;;;39.78;17.80;;;;;;;0.17;92.97;99540.84;5086101;28;20017;-71
2021/12/11 03:26:46;;;;;;;36.13;17.80;;;;;;;0.19;92.87;99538.31;5085823;28;20050;-71
2021/12/11 03:29:12;;;;;;;45.28;19.00;;;;;;;0.17;92.90;99539.97;5085208;28;20020;-71
2021/12/11 03:31:39;;;;;;;46.38;20.67;;;;;;;0.15;92.90;99537.41;5086324;28;20081;-71
2021/12/11 03:34:10;;;;;;;46.40;18.60;;;;;;;0.16;92.99;99538.28;5085413;28;20059;-71
2021/12/11 03:36:36;;;;;;;31.83;14.13;;;;;;;0.16;92.96;99538.28;5086051;28;20028;-71
2021/12/11 03:39:12;;;;;;;23.15;10.80;;;;;;;0.15;92.79;99537.41;5086084;28;20060;-70
2021/12/11 03:41:39;;;;;;;49.05;19.80;;;;;;;0.16;92.81;99543.38;5086403;28;20309;-72
2021/12/11 03:44:05;;;;;;;44.53;19.35;;;;;;;0.15;92.82;99539.06;5086164;28;20094;-71
2021/12/11 03:46:31;;;;;;;37.72;19.00;;;;;;;0.17;92.94;99551.06;5084246;28;20084;-70
2021/12/11 03:48:59;;;;;;;47.33;20.85;;;;;;;0.17;92.76;99545.09;5086217;28;20047;-70
2021/12/11 03:51:31;;;;;;;44.60;18.95;;;;;;;0.17;92.89;99555.28;5085928;28;20031;-70
2021/12/11 03:53:58;;;;;;;39.03;16.98;;;;;;;0.18;92.79;99552.78;5085503;28;20025;-70
2021/12/11 03:56:23;;;;;;;24.30;11.27;;;;;;;0.16;92.89;99553.59;5086017;28;20060;-70
2021/12/11 03:58:50;;;;;;;48.97;20.83;;;;;;;0.16;93.12;99559.53;5085589;28;20063;-71
2021/12/11 04:01:32;;;;;;;54.03;21.48;;;;;;;0.09;93.05;99544.94;5084241;28;20065;-72
2021/12/11 04:04:02;;;;;;;51.67;20.55;;;;;;;0.16;93.20;99561.25;5085444;28;20080;-72
2021/12/11 04:06:28;;;;;;;43.50;20.20;;;;;;;0.18;92.95;99570.63;5084126;28;20039;-71
2021/12/11 04:08:56;;;;;;;37.92;17.45;;;;;;;0.18;92.87;99575.75;5084856;28;20044;-71
2021/12/11 04:11:25;;;;;;;47.30;21.80;;;;;;;0.15;92.87;99573.13;5085267;28;20128;-70
2021/12/11 04:13:55;;;;;;;45.10;20.75;;;;;;;0.05;93.04;99566.97;5085100;28;20025;-71
2021/12/11 04:16:20;;;;;;;49.58;19.85;;;;;;;0.18;93.12;99588.50;5085038;28;20024;-72
2021/12/11 04:18:46;;;;;;;33.28;15.57;;;;;;;0.21;92.80;99593.69;5083805;28;20095;-71
2021/12/11 04:21:13;;;;;;;46.55;21.17;;;;;;;0.19;92.83;99595.34;5084769;28;20109;-71
2021/12/11 04:23:40;;;;;;;43.10;17.63;;;;;;;0.08;92.83;99577.25;5084855;28;20025;-71
2021/12/11 04:26:06;;;;;;;50.53;20.10;;;;;;;0.15;92.99;99592.69;5084994;28;20025;-72
2021/12/11 04:28:36;;;;;;;52.78;22.35;;;;;;;0.17;92.99;99603.78;5084860;28;20042;-72
2021/12/11 04:31:06;;;;;;;39.60;17.33;;;;;;;0.19;92.68;99599.59;5084682;28;20073;-72
2021/12/11 04:33:37;;;;;;;45.05;18.95;;;;;;;0.15;92.78;99606.31;5084629;28;20044;-72
2021/12/11 04:36:05;;;;;;;45.15;20.73;;;;;;;0.10;92.78;99601.13;5084720;28;20024;-72
2021/12/11 04:38:31;;;;;;;54.67;20.70;;;;;;;0.15;92.92;99613.97;5084237;28;20107;-71
2021/12/11 04:40:58;;;;;;;43.75;17.90;;;;;;;0.14;92.86;99612.25;5083259;28;20054;-70
2021/12/11 04:43:25;;;;;;;58.83;24.58;;;;;;;0.15;92.98;99616.53;5084829;28;20020;-71
2021/12/11 04:45:59;;;;;;;57.08;24.58;;;;;;;0.09;93.03;99611.28;5084541;28;20025;-72
2021/12/11 04:48:47;;;;;;;38.03;16.63;;;;;;;0.10;93.03;99613.00;5083659;28;20024;-71
2021/12/11 05:09:56;;;;;;;38.47;17.35;;;;;;;0.15;93.03;99641.19;5083827;28;20051;-71
2021/12/11 05:14:52;;;;;;;49.00;22.77;;;;;;;0.15;92.88;99639.50;5084355;28;20079;-72
2021/12/11 05:17:19;;;;;;;27.23;10.18;;;;;;;0.13;93.28;99641.16;5083896;28;20024;-72
2021/12/11 05:19:46;;;;;;;47.50;19.42;;;;;;;0.10;93.02;99635.97;5083719;28;20024;-72
2021/12/11 05:22:12;;;;;;;55.22;23.55;;;;;;;0.14;93.17;99650.56;5083958;28;20063;-72
2021/12/11 05:24:41;;;;;;;42.80;18.52;;;;;;;0.04;93.23;99646.06;5083767;28;20079;-73
2021/12/11 05:27:07;;;;;;;34.67;15.88;;;;;;;0.16;93.15;99651.44;5082551;28;20059;-72
2021/12/11 05:29:33;;;;;;;42.50;18.00;;;;;;;0.16;93.01;99655.69;5083527;28;20047;-71
2021/12/11 05:32:00;;;;;;;47.92;20.33;;;;;;;0.14;93.05;99659.91;5082317;28;20073;-72
2021/12/11 05:34:26;;;;;;;57.35;23.55;;;;;;;0.14;93.14;99658.22;5083777;28;20020;-72
2021/12/11 05:36:52;;;;;;;59.72;22.45;;;;;;;0.14;93.28;99670.97;5083633;28;20119;-73
2021/12/11 05:39:19;;;;;;;60.53;25.02;;;;;;;0.13;93.31;99669.22;5083508;28;20044;-71
2021/12/11 05:41:46;;;;;;;62.35;24.65;;;;;;;0.17;93.30;99668.50;5083675;28;20332;-72
2021/12/11 05:44:13;;;;;;;65.25;27.60;;;;;;;0.18;93.40;99672.75;5083483;28;20095;-72
2021/12/11 05:46:38;;;;;;;66.70;26.75;;;;;;;0.16;93.21;99671.84;5083458;28;20024;-72
2021/12/11 05:49:05;;;;;;;64.85;27.95;;;;;;;0.17;93.40;99678.69;5083515;28;20017;-72
2021/12/11 05:51:38;;;;;;;53.17;20.83;;;;;;;0.17;93.38;99680.38;5083638;28;20039;-71
2021/12/11 05:54:06;;;;;;;50.70;21.08;;;;;;;0.17;93.41;99683.81;5083353;28;20021;-71
2021/12/11 05:56:36;;;;;;;62.75;23.00;;;;;;;0.17;93.51;99688.03;5083691;28;20051;-71
2021/12/11 05:59:05;;;;;;;48.15;19.58;;;;;;;0.19;93.52;99692.34;5083256;28;20055;-71
2021/12/11 06:01:30;;;;;;;60.53;26.73;;;;;;;0.20;93.47;99690.66;5083204;28;20024;-71
2021/12/11 06:04:01;;;;;;;61.80;24.38;;;;;;;0.19;93.61;99694.91;5083460;28;20020;-71
2021/12/11 06:06:27;;;;;;;57.05;23.75;;;;;;;0.20;93.73;99694.09;5083205;28;20024;-71
2021/12/11 06:08:52;;;;;;;53.05;21.10;;;;;;;0.21;93.48;99695.81;5083159;28;20051;-72
2021/12/11 06:11:18;;;;;;;55.90;22.60;;;;;;;0.18;93.62;99695.72;5083245;28;20020;-71
2021/12/11 06:13:44;;;;;;;67.10;27.70;;;;;;;0.21;93.55;99703.47;5081741;28;20025;-72
2021/12/11 06:16:10;;;;;;;50.13;19.33;;;;;;;0.20;93.53;99696.63;5081952;28;20042;-71
2021/12/11 06:18:36;;;;;;;59.92;24.25;;;;;;;0.18;93.54;99694.84;5083159;28;20051;-71
2021/12/11 06:21:02;;;;;;;63.63;26.00;;;;;;;0.21;93.65;99700.03;5083037;28;20025;-71
2021/12/11 06:23:28;;;;;;;54.30;22.05;;;;;;;0.16;93.62;99704.19;5083385;28;20019;-72
2021/12/11 06:25:56;;;;;;;60.88;23.33;;;;;;;0.07;93.56;99692.06;5083315;28;20384;-72
2021/12/11 06:28:23;;;;;;;57.00;22.10;;;;;;;0.09;93.64;99701.50;5082865;28;20033;-72
2021/12/11 06:30:49;;;;;;;79.63;28.85;;;;;;;0.24;93.68;99721.41;5082926;28;20027;-72
2021/12/11 06:33:15;;;;;;;65.97;26.85;;;;;;;0.22;93.81;99710.28;5083193;28;20016;-72
2021/12/11 06:35:58;;;;;;;62.03;25.05;;;;;;;0.19;93.68;99707.66;5082926;28;20029;-73
2021/12/11 06:38:25;;;;;;;64.75;25.92;;;;;;;0.29;93.71;99720.66;5083146;28;20050;-71
2021/12/11 06:40:52;;;;;;;61.35;24.30;;;;;;;0.30;93.85;99715.59;5082887;28;20035;-71
2021/12/11 06:43:18;;;;;;;60.47;25.95;;;;;;;0.32;93.99;99723.28;5081650;28;20040;-73
2021/12/11 06:45:45;;;;;;;66.45;27.58;;;;;;;0.34;93.90;99727.59;5082806;28;20045;-72
2021/12/11 06:48:11;;;;;;;64.50;25.98;;;;;;;0.35;94.05;99725.91;5082876;28;20092;-73
2021/12/11 06:50:37;;;;;;;55.83;25.35;;;;;;;0.22;93.77;99705.16;5083226;28;20024;-73
2021/12/11 06:53:10;;;;;;;61.80;26.77;;;;;;;0.39;93.88;99732.78;5082703;28;20036;-72
2021/12/11 06:55:36;;;;;;;57.28;25.20;;;;;;;0.27;93.56;99712.97;5081268;28;20052;-72
2021/12/11 06:58:01;;;;;;;59.88;24.00;;;;;;;0.36;93.59;99735.28;5081671;28;20531;-73
2021/12/11 07:00:28;;;;;;;58.30;25.40;;;;;;;0.34;93.69;99732.69;5082786;28;20028;-73
2021/12/11 07:02:54;;;;;;;60.00;24.08;;;;;;;0.35;93.80;99736.13;5082695;28;20059;-73
2021/12/11 07:05:19;;;;;;;62.05;24.67;;;;;;;0.35;93.69;99738.66;5082922;28;20020;-73
2021/12/11 07:07:46;;;;;;;60.25;24.52;;;;;;;0.35;93.70;99743.78;5082490;28;20029;-72
2021/12/11 07:10:14;;;;;;;56.10;23.95;;;;;;;0.37;93.68;99749.75;5082535;28;20025;-73
2021/12/11 07:12:41;;;;;;;56.38;22.27;;;;;;;0.35;93.73;99751.44;5085962;28;20099;-73
2021/12/11 07:15:09;;;;;;;61.33;23.98;;;;;;;0.36;93.87;99755.72;5086064;28;20031;-73
2021/12/11 07:17:35;;;;;;;60.05;22.65;;;;;;;0.30;94.02;99753.88;5084948;28;20453;-73
2021/12/11 07:20:07;;;;;;;56.78;24.35;;;;;;;0.36;93.80;99760.81;5086353;28;20036;-75
2021/12/11 07:22:32;;;;;;;50.57;21.73;;;;;;;0.38;93.78;99760.84;5086337;28;20023;-74
2021/12/11 07:25:03;;;;;;;56.58;23.75;;;;;;;0.38;93.82;99761.72;5085794;28;20261;-74
2021/12/11 07:27:29;;;;;;;72.10;26.77;;;;;;;0.40;93.67;99766.88;5085471;28;20082;-74
2021/12/11 07:29:55;;;;;;;46.08;17.92;;;;;;;0.38;93.42;99766.81;5085133;28;20466;-75
2021/12/11 07:32:20;;;;;;;66.63;27.85;;;;;;;0.36;93.53;99771.91;5086039;28;20029;-75
2021/12/11 07:34:45;;;;;;;67.40;27.75;;;;;;;0.32;93.70;99770.09;5086095;28;20028;-73
2021/12/11 07:37:11;;;;;;;71.65;27.55;;;;;;;0.35;93.78;99774.41;5084496;28;20020;-75
2021/12/11 07:39:37;;;;;;;77.28;30.08;;;;;;;0.37;93.91;99788.06;5085672;28;20027;-76
2021/12/11 07:42:03;;;;;;;66.90;28.75;;;;;;;0.36;93.98;99777.00;5085763;28;20032;-76
2021/12/11 07:44:29;;;;;;;70.00;28.95;;;;;;;0.39;93.96;99786.41;5085802;28;20532;-76
2021/12/11 07:46:56;;;;;;;69.15;27.35;;;;;;;0.37;93.81;99788.06;5085848;28;20470;-76
2021/12/11 07:49:21;;;;;;;65.05;27.63;;;;;;;0.36;93.72;99792.31;5085930;28;20029;-74
2021/12/11 07:51:48;;;;;;;73.47;28.08;;;;;;;0.35;93.81;99789.75;5085537;28;20023;-76
2021/12/11 07:54:13;;;;;;;62.60;27.02;;;;;;;0.39;93.83;99803.41;5085499;28;20024;-75
2021/12/11 07:56:40;;;;;;;63.47;26.13;;;;;;;0.35;94.04;99797.41;5085643;28;20047;-74
2021/12/11 07:59:07;;;;;;;61.75;25.67;;;;;;;0.35;94.00;99805.06;5085527;28;20043;-76
2021/12/11 08:01:35;;;;;;;77.10;29.58;;;;;;;0.27;94.00;99792.13;5085460;28;20039;-76
2021/12/11 08:04:03;;;;;;;66.30;30.10;;;;;;;0.37;93.89;99816.16;5085698;28;20491;-76
2021/12/11 08:06:30;;;;;;;64.55;24.05;;;;;;;0.42;94.01;99827.34;5084177;28;20028;-77
2021/12/11 08:08:56;;;;;;;66.82;25.42;;;;;;;0.41;93.93;99820.53;5085083;28;20417;-76
2021/12/11 08:11:21;;;;;;;77.00;30.02;;;;;;;0.39;93.93;99832.38;5085202;28;20024;-76
2021/12/11 08:13:50;;;;;;;63.03;25.85;;;;;;;0.42;94.07;99829.03;5085585;28;20476;-75
2021/12/11 08:16:19;;;;;;;64.13;26.33;;;;;;;0.41;93.91;99835.84;5084120;28;20087;-77
2021/12/11 08:18:45;;;;;;;67.22;29.08;;;;;;;0.38;93.92;99833.22;5085274;28;20031;-76
2021/12/11 08:21:11;;;;;;;71.13;28.55;;;;;;;0.39;93.73;99829.84;5085059;28;20252;-76
2021/12/11 08:23:43;;;;;;;63.47;28.17;;;;;;;0.41;93.74;99840.97;5083769;28;20024;-75
2021/12/11 08:26:10;;;;;;;63.22;22.85;;;;;;;0.41;93.93;99848.63;5083667;28;20119;-77
2021/12/11 08:28:35;;;;;;;71.25;27.77;;;;;;;0.37;94.04;99841.69;5085158;28;20031;-77
2021/12/11 08:31:01;;;;;;;70.88;28.05;;;;;;;0.29;93.88;99835.56;5084834;28;20025;-77
2021/12/11 08:33:26;;;;;;;66.25;26.60;;;;;;;0.33;94.04;99835.66;5084761;28;20055;-77
2021/12/11 08:35:53;;;;;;;68.20;26.92;;;;;;;0.40;94.05;99849.44;5084936;28;20031;-77
2021/12/11 08:38:19;;;;;;;61.88;25.75;;;;;;;0.34;94.01;99845.03;5083162;28;20094;-78
2021/12/11 08:40:51;;;;;;;66.18;26.30;;;;;;;0.30;93.83;99840.69;5084557;28;20052;-75
2021/12/11 08:43:18;;;;;;;56.10;24.08;;;;;;;0.39;93.93;99851.94;5084797;28;20108;-75
2021/12/11 08:45:49;;;;;;;65.35;26.15;;;;;;;0.40;93.96;99856.25;5084871;28;20084;-76
2021/12/11 08:48:19;;;;;;;64.03;25.20;;;;;;;0.28;93.98;99844.03;5084520;28;20059;-75
2021/12/11 08:50:49;;;;;;;58.58;24.98;;;;;;;0.40;94.12;99858.81;5082964;28;20092;-75
2021/12/11 08:53:14;;;;;;;66.00;27.90;;;;;;;0.41;94.21;99866.50;5084282;28;20025;-75
2021/12/11 08:55:43;;;;;;;61.30;24.10;;;;;;;0.41;94.17;99863.06;5084078;28;20102;-74
2021/12/11 08:58:12;;;;;;;67.82;24.45;;;;;;;0.45;94.33;99872.53;5084199;28;20035;-76
2021/12/11 09:00:47;;;;;;;69.95;28.58;;;;;;;0.52;94.32;99871.00;5084086;28;20083;-75
2021/12/11 09:03:27;;;;;;;62.63;25.25;;;;;;;0.56;94.18;99875.38;5084175;28;20070;-75
2021/12/11 09:06:05;;;;;;;68.00;27.05;;;;;;;0.55;94.12;99876.16;5084143;28;20103;-75
2021/12/11 09:08:44;;;;;;;60.38;23.77;;;;;;;0.66;94.60;99874.75;5083782;28;20072;-75
2021/12/11 09:11:20;;;;;;;68.80;28.67;;;;;;;0.83;94.49;99870.00;5083866;28;20084;-75
2021/12/11 09:14:08;;;;;;;62.78;25.77;;;;;;;0.86;94.29;99874.34;5083768;28;20042;-75
2021/12/11 09:17:01;;;;;;;65.07;26.08;;;;;;;0.80;94.12;99869.09;5083719;28;20473;-75
2021/12/11 09:19:33;;;;;;;63.83;26.38;;;;;;;0.79;93.83;99868.22;5083706;28;20444;-75
2021/12/11 09:21:58;;;;;;;67.88;27.83;;;;;;;0.81;93.77;99881.91;5083458;28;20024;-74
2021/12/11 09:24:28;;;;;;;58.80;23.67;;;;;;;0.90;94.15;99880.38;5083478;28;20092;-75
2021/12/11 09:27:22;;;;;;;54.88;22.52;;;;;;;0.88;93.66;99882.03;5083710;28;20052;-74
2021/12/11 09:29:56;;;;;;;59.60;24.75;;;;;;;0.80;93.45;99879.31;5073654;28;20477;-75
2021/12/11 09:32:26;;;;;;;50.50;20.40;;;;;;;0.78;93.56;99889.50;5083518;28;20116;-74
2021/12/11 09:35:07;;;;;;;69.30;28.17;;;;;;;0.79;93.62;99890.34;5083410;28;20117;-74
2021/12/11 09:37:35;;;;;;;69.38;25.77;;;;;;;0.74;93.72;99888.56;5083568;28;20040;-79
2021/12/11 09:40:10;;;;;;;66.07;27.60;;;;;;;0.81;93.94;99891.25;5081682;28;20025;-74
2021/12/11 09:42:35;;;;;;;62.75;27.70;;;;;;;0.87;93.99;99896.50;5083516;28;20103;-75
2021/12/11 09:45:13;;;;;;;68.95;28.88;;;;;;;0.80;93.50;99889.53;5083687;28;20032;-76
2021/12/11 09:47:50;;;;;;;61.00;25.17;;;;;;;0.80;93.54;99897.22;5083445;28;20052;-76
2021/12/11 09:50:34;;;;;;;64.07;27.48;;;;;;;0.84;93.39;99906.66;5083311;28;20106;-76
2021/12/11 09:53:00;;;;;;;66.80;27.80;;;;;;;0.82;93.66;99906.63;5083140;28;20017;-76
2021/12/11 09:55:33;;;;;;;68.25;29.83;;;;;;;0.86;93.85;99917.78;5082836;28;20035;-76
2021/12/11 09:58:02;;;;;;;74.95;28.20;;;;;;;0.83;93.74;99915.16;5083095;28;20031;-75
2021/12/11 10:00:32;;;;;;;66.30;28.17;;;;;;;0.83;93.82;99918.56;5082731;28;20021;-75
2021/12/11 10:03:00;;;;;;;62.92;26.75;;;;;;;0.83;93.94;99923.69;5083158;28;20072;-75
2021/12/11 10:05:38;;;;;;;75.45;28.58;;;;;;;0.82;93.85;99915.97;5083340;28;20021;-75
2021/12/11 10:08:35;;;;;;;76.13;31.27;;;;;;;0.82;94.01;99913.41;5082583;28;20078;-75
2021/12/11 10:11:01;;;;;;;75.45;29.88;;;;;;;0.89;93.98;99933.19;5082746;28;20024;-75
2021/12/11 10:13:28;;;;;;;63.65;26.88;;;;;;;0.84;93.94;99927.97;5081667;28;20025;-76
2021/12/11 10:15:54;;;;;;;57.95;23.23;;;;;;;0.85;93.87;99933.94;5083277;28;20397;-75
2021/12/11 10:18:24;;;;;;;66.93;29.60;;;;;;;0.83;93.99;99928.78;5083196;28;20384;-75
2021/12/11 10:21:03;;;;;;;64.22;25.70;;;;;;;0.80;94.06;99925.31;5083091;28;20025;-75
2021/12/11 10:23:31;;;;;;;68.05;27.73;;;;;;;0.73;93.90;99914.97;5083475;28;20017;-73
2021/12/11 10:26:00;;;;;;;67.72;28.63;;;;;;;0.84;93.92;99939.88;5083123;28;20078;-75
2021/12/11 10:28:29;;;;;;;64.00;27.25;;;;;;;0.86;93.97;99939.09;5083365;28;20076;-76
2021/12/11 10:31:02;;;;;;;73.22;28.23;;;;;;;0.88;94.06;99941.69;5083333;28;20024;-78
2021/12/11 10:33:31;;;;;;;72.63;29.27;;;;;;;0.85;94.05;99929.69;5083306;28;20033;-76
2021/12/11 10:36:00;;;;;;;66.50;28.02;;;;;;;0.87;93.99;99934.84;5083128;28;20036;-76
2021/12/11 10:38:26;;;;;;;68.00;26.73;;;;;;;0.86;94.08;99936.53;5083546;28;20020;-75
2021/12/11 10:40:56;;;;;;;73.97;28.10;;;;;;;0.86;94.02;99940.81;5082626;28;20054;-77
2021/12/11 10:43:28;;;;;;;83.45;31.63;;;;;;;0.86;94.13;99948.47;5083414;28;20048;-76
2021/12/11 10:45:55;;;;;;;60.58;29.60;;;;;;;0.86;94.29;99946.75;5084255;28;20088;-76
2021/12/11 10:48:27;;;;;;;74.00;30.38;;;;;;;0.91;94.20;99959.63;5085728;28;20025;-76
2021/12/11 10:51:05;;;;;;;;;;;;;;;0.88;94.26;99954.44;5087586;28;20040;-75
2021/12/11 10:53:31;;;;;;;65.13;28.17;;;;;;;0.89;94.34;99961.31;5086965;28;19938;-75
2021/12/11 10:56:00;;;;;;;74.30;29.80;;;;;;;0.90;94.31;99962.16;5085527;28;20024;-76
2021/12/11 10:58:31;;;;;;;44.90;19.73;;;;;;;0.94;94.25;99961.44;5086930;28;20028;-75
2021/12/11 11:01:19;;;;;;;64.35;26.98;;;;;;;0.77;93.79;99936.31;5086712;28;20077;-75
2021/12/11 11:03:51;;;;;;;74.93;30.25;;;;;;;0.91;94.14;99963.91;5086103;28;20055;-75
2021/12/11 11:06:17;;;;;;;71.30;28.38;;;;;;;0.91;94.32;99967.31;5085926;28;20020;-76
2021/12/11 11:08:43;;;;;;;75.68;29.90;;;;;;;0.92;94.29;99969.06;5084544;28;20051;-75
2021/12/11 11:11:12;;;;;;;65.85;28.23;;;;;;;0.96;94.35;99978.50;5084721;28;20019;-74
2021/12/11 11:13:38;;;;;;;73.00;29.88;;;;;;;0.98;94.40;99976.88;5085955;28;20016;-77
2021/12/11 11:16:05;;;;;;;62.03;22.92;;;;;;;1.04;94.28;99977.84;5086169;28;20025;-76
2021/12/11 11:18:30;;;;;;;70.18;28.13;;;;;;;0.99;94.01;99978.59;5084873;28;20021;-76
2021/12/11 11:21:11;;;;;;;61.70;22.70;;;;;;;1.00;93.51;99982.03;5086357;28;20142;-76
2021/12/11 11:23:37;;;;;;;73.68;31.80;;;;;;;0.90;93.77;99977.50;5085754;28;20024;-77
2021/12/11 11:26:07;;;;;;;63.30;27.65;;;;;;;0.90;94.22;99983.47;5085957;28;20056;-77
2021/12/11 11:28:34;;;;;;;68.47;28.30;;;;;;;0.95;94.15;99987.03;5085829;28;20058;-78
2021/12/11 11:31:11;;;;;;;64.32;28.67;;;;;;;0.99;94.19;99993.09;5085843;28;20027;-77
2021/12/11 11:33:36;;;;;;;67.93;29.27;;;;;;;0.95;94.20;99986.16;5084257;28;20033;-77
2021/12/11 11:36:08;;;;;;;68.32;27.95;;;;;;;1.01;94.28;99998.22;5084454;28;20020;-77
2021/12/11 11:38:37;;;;;;;66.53;28.88;;;;;;;0.99;94.15;99998.19;5084185;28;20016;-76
2021/12/11 11:41:10;;;;;;;53.10;21.98;;;;;;;0.99;94.17;100004.16;5085375;28;20028;-76
2021/12/11 11:43:36;;;;;;;72.85;30.90;;;;;;;0.99;94.27;100004.16;5085218;28;20229;-75
2021/12/11 11:46:02;;;;;;;68.85;30.90;;;;;;;0.85;94.33;99991.03;5085493;28;20067;-76
2021/12/11 11:48:31;;;;;;;71.85;28.25;;;;;;;0.97;94.30;100010.06;5085660;28;20030;-76
2021/12/11 11:51:00;;;;;;;72.40;29.27;;;;;;;0.90;94.16;100011.59;5083785;28;20024;-75
2021/12/11 11:53:26;;;;;;;66.38;29.60;;;;;;;0.94;93.93;100021.06;5085249;28;20044;-75
2021/12/11 11:55:57;;;;;;;73.28;29.10;;;;;;;0.86;94.18;100009.81;5085163;28;20027;-75
2021/12/11 11:58:27;;;;;;;75.72;31.50;;;;;;;0.91;94.19;100018.44;5084927;28;20020;-75
2021/12/11 12:01:01;;;;;;;74.38;29.33;;;;;;;0.93;94.22;100029.56;5085148;28;20029;-75